Résultats sport de masse course à pied

Résultats : Cross Ouest France 2019 - 10 km Crédit Mutuel

Classement général Classement Sexe Nom, prénom Catégorie Sexe Club Temps global
467 451 CHEUNG muller SE M AUVOURS 1 00:46:55
468 452 RALU Damien SE M 00:46:57
469 453 LO gwenael SE M AUVOURS 3 00:46:58
470 454 GOUHIER brice SE M AUVOURS 1 00:46:58
472 455 FEKIH salime SE M AUVOURS 3 00:46:59
473 456 FABRE nicolas SE M AUVOURS 3 00:46:59
474 457 TAMETONA roland SE M AUVOURS 4 00:46:59
475 458 SOUCHU Jérémy SE M 00:47:00
476 459 LANDAIS Julien SE M 00:47:01
477 460 MEUNIER anthony SE M AUVOURS 2 00:47:02
478 461 DROUET THIBAULT SE M US SAINT MARS LA BRIERE 00:47:02
479 462 ROBIN Florian ES M 00:47:04
480 463 ROUYER romain SE M AUVOURS CCL 00:47:05
481 464 PERPOIL Pascal V2 M S/L AC LA CHAPELLE/ERDRE 00:47:06
482 465 TROGNON Philippe V2 M 00:47:06
483 466 EGBERT Jacky V2 M 00:47:06
484 467 CHATELIN Mickael V1 M CHATELIN 00:47:06
485 468 MOREAU ¨Patrice V2 M 00:47:07
486 469 MOREAU rudy SE M AUVOURS 3 00:47:07
487 470 LANCELIN FREDERICK SE M TEAM SPORT ZEN LA SUZE 00:47:07
488 471 DELHOMMOIS Aubin SE M 00:47:07
489 472 TOUPIN BERTRAND V1 M 00:47:08
490 473 QUELEN steven SE M AUVOURS 3 00:47:08
491 474 FOURMOND thomas SE M AUVOURS 4 00:47:09
492 475 BLOT ANTOINE SE M S/L LE MANS A 72 00:47:09
493 476 RONDEAU Jules CA M 00:47:09
494 477 DUPUY Thomas SE M 00:47:10
495 478 VIEILLEPEAU Olivier V1 M SARTHE RUNNING 00:47:11
496 479 PARISSEAUX Rémy V1 M SARTHE RUNNING 00:47:12
497 480 AUBRIL Romain SE M 00:47:12
499 481 MEDARD Daniel V3 M S/L EA VAL D HUISNE CHAMPAGNE 00:47:14
500 482 VANDERBERGHE gregoire SE M AUVOURS CEA 00:47:15
501 483 MOHAMED SAMEEN mougamadou SE M AUVOURS CCL 00:47:15
502 484 MAGNIEN Gaetan ES M 00:47:16
503 485 CARON Jean-Philippe V1 M 00:47:16
504 486 DANSETTE Alexandre ES M 00:47:17
505 487 BROU guillaume ES M AUVOURS CEA 00:47:17
506 488 CASSAGNES geoffroy V1 M AUVOURS CCL 00:47:17
507 489 PRIGENT arnaud V1 M AUVOURS CCL 00:47:18
508 490 DUTEIL MARC SE M 00:47:18
509 491 DEWERDT Antoine JU M 00:47:19
510 492 LESIMPLE pierre marie SE M AUVOURS 4 00:47:20
511 493 GUENVER antoine SE M AUVOURS CEA 00:47:20
512 494 CLEMENT SIMON ES M 00:47:20
513 495 MOINEAU Stéphane V1 M CHATEAU GONTIER TRIATHLON 00:47:21
514 496 HAIES Alexandre SE M S/L US ARNAGE 00:47:21
515 497 CLEMENT CHRISTOPHE V1 M RUN AND FREEDOM 00:47:21
516 498 FOREST quentin ES M AUVOURS CEA 00:47:21
517 499 SOARIMANANA gerard SE M AUVOURS CEA 00:47:22
518 500 BOURDIN Thomas SE M S/L CE RENAULT LE MANS 00:47:22